Time;durP1;ratioP1;P1;durP2;ratioP2;P2;SDS_P1;SDS_P2;PMS_P1;PMS_P2;Temp;Humidity;BMP_temperature;BMP_pressure;BME280_temperature;BME280_humidity;BME280_pressure;Samples;Min_cycle;Max_cycle;Signal;HPM_P1;HPM_P2
2021/05/21 00:01:22;;;;;;;4.53;3.40;;;;;;;13.63;100.00;99280.77;1662032;86;21118;-75
2021/05/21 00:03:49;;;;;;;6.17;3.30;;;;;;;13.60;100.00;99268.98;1662034;86;21047;-76
2021/05/21 00:06:15;;;;;;;5.30;3.70;;;;;;;13.57;100.00;99278.38;1662168;86;21063;-76
2021/05/21 00:08:43;;;;;;;6.67;4.03;;;;;;;13.56;100.00;99274.50;1646986;86;21111;-75
2021/05/21 00:11:10;;;;;;;4.58;3.58;;;;;;;13.54;100.00;99266.56;1662030;86;21628;-76
2021/05/21 00:13:38;;;;;;;5.00;3.80;;;;;;;13.52;100.00;99264.58;1661828;86;21540;-75
2021/05/21 00:16:06;;;;;;;6.78;3.60;;;;;;;13.49;100.00;99263.63;1662040;85;21055;-75
2021/05/21 00:18:33;;;;;;;5.20;3.05;;;;;;;13.45;100.00;99261.86;1661735;86;21055;-74
2021/05/21 00:20:59;;;;;;;3.62;2.98;;;;;;;13.42;100.00;99263.66;1646746;86;21078;-74
2021/05/21 00:23:26;;;;;;;6.92;3.15;;;;;;;13.39;100.00;99262.70;1662237;86;21079;-74
2021/05/21 00:25:53;;;;;;;3.67;2.92;;;;;;;13.36;100.00;99263.64;1661963;86;21050;-73
2021/05/21 00:28:19;;;;;;;5.70;3.20;;;;;;;13.34;100.00;99253.52;1661992;86;21051;-74
2021/05/21 00:30:46;;;;;;;2.98;2.77;;;;;;;13.30;100.00;99247.11;1661962;86;21079;-75
2021/05/21 00:33:13;;;;;;;3.98;3.45;;;;;;;13.28;100.00;99257.34;1662012;86;21560;-73
2021/05/21 00:35:40;;;;;;;7.03;3.72;;;;;;;13.25;100.00;99256.92;1661939;86;21071;-74
2021/05/21 00:38:07;;;;;;;7.53;3.17;;;;;;;13.21;100.00;99258.36;1661932;86;21067;-75
2021/05/21 00:40:34;;;;;;;7.50;3.05;;;;;;;13.20;100.00;99260.78;1661921;86;21078;-74
2021/05/21 00:43:02;;;;;;;7.97;3.27;;;;;;;13.17;100.00;99248.44;1661964;86;21087;-73
2021/05/21 00:45:28;;;;;;;3.58;3.12;;;;;;;13.15;100.00;99254.60;1661791;86;21560;-74
2021/05/21 00:47:55;;;;;;;3.92;2.98;;;;;;;13.13;100.00;99247.73;1662204;85;21111;-75
2021/05/21 00:50:22;;;;;;;5.03;3.10;;;;;;;13.11;100.00;99246.04;1689646;84;21118;-74
2021/05/21 00:52:48;;;;;;;3.30;2.83;;;;;;;13.09;100.00;99243.23;1689673;85;21078;-75
2021/05/21 00:55:15;;;;;;;4.83;2.90;;;;;;;13.05;100.00;99244.17;1677657;85;21031;-74
2021/05/21 00:57:43;;;;;;;4.65;2.75;;;;;;;13.04;100.00;99239.77;1661794;85;21107;-72
2021/05/21 01:00:11;;;;;;;3.55;2.45;;;;;;;13.03;100.00;99234.55;1661810;85;21027;-74
2021/05/21 01:02:38;;;;;;;3.42;2.45;;;;;;;13.03;100.00;99236.76;1661798;85;21075;-73
2021/05/21 01:05:06;;;;;;;2.50;2.08;;;;;;;13.04;100.00;99231.63;1661905;86;21047;-73
2021/05/21 01:07:34;;;;;;;2.72;2.50;;;;;;;13.03;100.00;99219.12;1661867;85;21071;-73
2021/05/21 01:10:03;;;;;;;2.60;2.40;;;;;;;13.04;100.00;99237.06;1661720;86;21071;-73
2021/05/21 01:12:30;;;;;;;4.53;2.70;;;;;;;13.03;100.00;99220.48;1661957;86;21082;-73
2021/05/21 01:14:56;;;;;;;8.85;3.05;;;;;;;13.01;100.00;99213.57;1661771;86;21070;-75
2021/05/21 01:17:24;;;;;;;2.15;2.02;;;;;;;12.99;100.00;99218.38;1661906;86;21074;-75
2021/05/21 01:19:52;;;;;;;5.35;2.40;;;;;;;12.95;100.00;99218.48;1661863;86;21047;-75
2021/05/21 01:22:20;;;;;;;3.70;2.70;;;;;;;12.93;100.00;99220.57;1661822;85;21067;-73
2021/05/21 01:24:47;;;;;;;3.77;2.50;;;;;;;12.89;100.00;99225.05;1661768;86;21075;-74
2021/05/21 01:27:14;;;;;;;2.90;2.30;;;;;;;12.87;100.00;99226.27;1661824;86;21124;-74
2021/05/21 01:29:41;;;;;;;2.77;2.30;;;;;;;12.82;100.00;99221.48;1662003;86;21051;-73
2021/05/21 01:32:09;;;;;;;2.87;2.20;;;;;;;12.80;100.00;99222.72;1661646;86;21062;-73
2021/05/21 01:34:38;;;;;;;4.55;2.35;;;;;;;12.77;100.00;99222.63;1661763;85;21095;-73
2021/05/21 01:37:20;;;;;;;2.47;2.20;;;;;;;12.75;100.00;99219.78;1661859;86;21548;-73
2021/05/21 01:39:49;;;;;;;4.03;2.17;;;;;;;12.72;100.00;99221.04;1617076;89;21537;-74
2021/05/21 01:42:16;;;;;;;6.10;2.50;;;;;;;12.69;100.00;99220.91;1617198;89;21533;-74
2021/05/21 01:44:43;;;;;;;4.25;2.75;;;;;;;12.68;100.00;99224.68;1617252;89;21067;-74
2021/05/21 01:47:11;;;;;;;3.00;2.60;;;;;;;12.65;100.00;99229.16;1617166;89;21034;-73
2021/05/21 01:49:39;;;;;;;2.75;2.10;;;;;;;12.62;100.00;99226.84;1613773;89;21066;-74
2021/05/21 01:52:07;;;;;;;2.80;2.20;;;;;;;12.59;100.00;99232.70;1611819;89;21573;-74
2021/05/21 01:54:35;;;;;;;3.87;2.50;;;;;;;12.56;100.00;99229.55;1612739;89;21042;-73
2021/05/21 01:57:03;;;;;;;5.22;2.92;;;;;;;12.53;100.00;99229.42;1617223;87;21663;-75
2021/05/21 01:59:30;;;;;;;5.50;2.62;;;;;;;12.52;100.00;99225.06;1606458;89;21127;-74
2021/05/21 02:01:57;;;;;;;3.62;2.27;;;;;;;12.50;100.00;99227.11;1604242;89;21632;-73
2021/05/21 02:04:36;;;;;;;3.47;2.52;;;;;;;12.50;100.00;99227.97;1604362;89;21164;-74
2021/05/21 02:07:04;;;;;;;2.85;2.08;;;;;;;12.49;100.00;99222.22;1578980;91;21050;-74
2021/05/21 02:09:58;;;;;;;5.80;2.40;;;;;;;12.47;100.00;99229.72;1579121;91;21115;-73
2021/05/21 02:12:26;;;;;;;4.35;2.02;;;;;;;12.43;100.00;99213.56;1579222;91;21702;-74
2021/05/21 02:14:59;;;;;;;2.67;1.95;;;;;;;12.40;100.00;99207.70;1579123;91;21082;-73
2021/05/21 02:17:26;;;;;;;;;;;;;;;12.38;100.00;99215.18;1581449;91;21612;-72
2021/05/21 02:19:57;;;;;;;8.25;2.42;;;;;;;12.35;100.00;99215.91;1579369;91;20195;-74
2021/05/21 02:22:23;;;;;;;2.67;2.15;;;;;;;12.31;100.00;99218.72;1576143;91;21133;-75
2021/05/21 02:24:50;;;;;;;3.45;2.50;;;;;;;12.28;100.00;99223.18;1578949;91;21628;-74
2021/05/21 02:27:17;;;;;;;3.05;1.92;;;;;;;12.25;100.00;99213.27;1579179;91;21090;-73
2021/05/21 02:29:44;;;;;;;3.40;1.90;;;;;;;12.20;100.00;99216.59;1578939;91;21138;-73
2021/05/21 02:32:11;;;;;;;2.02;1.90;;;;;;;12.19;100.00;99227.64;1579097;91;21085;-73
2021/05/21 02:34:37;;;;;;;4.08;2.60;;;;;;;12.16;100.00;99223.44;1613286;88;21077;-73
2021/05/21 02:37:04;;;;;;;2.95;1.80;;;;;;;12.15;100.00;99219.08;1634371;88;21093;-73
2021/05/21 02:39:32;;;;;;;7.78;2.50;;;;;;;12.14;100.00;99220.09;1634373;88;21594;-74
2021/05/21 02:41:59;;;;;;;4.05;2.15;;;;;;;12.13;100.00;99217.91;1634205;88;21065;-73
2021/05/21 02:44:26;;;;;;;4.50;1.85;;;;;;;12.11;100.00;99201.02;1634164;88;21194;-73
2021/05/21 02:46:52;;;;;;;4.37;1.72;;;;;;;12.11;100.00;99197.45;1634518;88;21089;-72
2021/05/21 02:49:20;;;;;;;3.12;1.80;;;;;;;12.09;100.00;99200.89;1619314;88;21077;-75
2021/05/21 02:51:48;;;;;;;2.98;1.98;;;;;;;12.09;100.00;99194.98;1608450;89;21610;-74
2021/05/21 02:54:15;;;;;;;2.87;1.80;;;;;;;12.08;100.00;99193.29;1608827;88;21177;-74
2021/05/21 02:56:42;;;;;;;2.25;2.00;;;;;;;12.08;100.00;99181.62;1634399;88;21080;-75
2021/05/21 02:59:10;;;;;;;4.03;2.40;;;;;;;12.09;100.00;99186.84;1634406;87;21173;-75
2021/05/21 03:01:37;;;;;;;4.10;2.50;;;;;;;12.07;100.00;99180.77;1634417;88;21581;-73
2021/05/21 03:04:04;;;;;;;2.10;2.00;;;;;;;12.08;100.00;99196.00;1653419;86;21109;-75
2021/05/21 03:06:31;;;;;;;5.33;2.40;;;;;;;12.07;100.00;99190.25;1662260;86;21082;-75
2021/05/21 03:08:57;;;;;;;4.12;2.40;;;;;;;12.08;100.00;99193.29;1662458;86;21662;-75
2021/05/21 03:11:26;;;;;;;9.75;2.62;;;;;;;12.09;100.00;99196.83;1662012;86;21073;-74
2021/05/21 03:13:53;;;;;;;2.35;1.90;;;;;;;12.11;100.00;99201.52;1662438;86;21070;-74
2021/05/21 03:16:21;;;;;;;2.95;2.05;;;;;;;12.14;100.00;99195.70;1662383;86;21074;-75
2021/05/21 03:18:49;;;;;;;4.65;1.98;;;;;;;12.18;100.00;99202.39;1662360;86;21078;-74
2021/05/21 03:21:15;;;;;;;2.15;1.90;;;;;;;12.20;100.00;99213.03;1662559;86;21045;-73
2021/05/21 03:23:42;;;;;;;8.05;1.90;;;;;;;12.22;100.00;99216.40;1662266;86;21622;-73
2021/05/21 03:26:08;;;;;;;1.85;1.75;;;;;;;12.22;100.00;99219.94;1662403;85;21061;-74
2021/05/21 03:28:35;;;;;;;3.25;1.87;;;;;;;12.22;100.00;99224.00;1662443;86;21054;-73
2021/05/21 03:31:02;;;;;;;3.70;2.05;;;;;;;12.22;100.00;99221.29;1662313;86;21077;-75
2021/05/21 03:33:29;;;;;;;1.87;1.70;;;;;;;12.23;100.00;99227.02;1662431;86;21110;-74
2021/05/21 03:35:56;;;;;;;4.78;2.47;;;;;;;12.24;100.00;99234.12;1662496;86;21112;-74
2021/05/21 03:38:24;;;;;;;3.67;1.80;;;;;;;12.26;100.00;99229.33;1662216;86;21575;-75
2021/05/21 03:40:51;;;;;;;3.90;1.80;;;;;;;12.30;100.00;99237.89;1662195;86;21583;-74
2021/05/21 03:43:18;;;;;;;2.47;1.95;;;;;;;12.33;100.00;99234.78;1662183;86;21555;-74
2021/05/21 03:45:44;;;;;;;4.72;2.00;;;;;;;12.35;100.00;99231.34;1662244;86;21042;-76
2021/05/21 03:48:12;;;;;;;5.28;2.20;;;;;;;12.35;100.00;99235.41;1662111;85;21579;-76
2021/05/21 03:50:39;;;;;;;4.35;2.00;;;;;;;12.38;100.00;99234.16;1662173;86;21577;-75
2021/05/21 03:53:06;;;;;;;3.50;1.87;;;;;;;12.41;100.00;99226.98;1662343;86;21023;-75
2021/05/21 03:55:35;;;;;;;3.80;2.08;;;;;;;12.45;100.00;99227.74;1661436;86;21046;-74
2021/05/21 03:58:01;;;;;;;12.90;5.10;;;;;;;12.49;100.00;99226.28;1660995;86;21571;-73
2021/05/21 04:00:28;;;;;;;7.65;3.40;;;;;;;12.55;100.00;99239.55;1660543;85;21070;-75
2021/05/21 04:02:55;;;;;;;9.05;3.40;;;;;;;12.57;100.00;99240.70;1660753;86;21594;-74
2021/05/21 04:05:22;;;;;;;5.28;3.30;;;;;;;12.59;100.00;99237.26;1660904;86;21105;-74
2021/05/21 04:07:49;;;;;;;5.10;2.58;;;;;;;12.59;100.00;99240.83;1660941;86;21026;-75
2021/05/21 04:10:16;;;;;;;4.28;2.47;;;;;;;12.62;100.00;99236.33;1660871;85;21073;-76
2021/05/21 04:12:43;;;;;;;3.62;2.10;;;;;;;12.65;100.00;99239.17;1660820;86;21559;-74
2021/05/21 04:15:12;;;;;;;4.33;1.90;;;;;;;12.65;100.00;99240.00;1661058;86;21057;-74
2021/05/21 04:17:39;;;;;;;4.53;1.98;;;;;;;12.67;100.00;99251.48;1661020;86;21053;-74
2021/05/21 04:20:10;;;;;;;1.90;1.72;;;;;;;12.69;100.00;99245.85;1660696;86;21050;-74
2021/05/21 04:22:39;;;;;;;3.67;2.02;;;;;;;12.69;100.00;99235.00;1638533;86;21090;-75
2021/05/21 04:25:08;;;;;;;4.72;1.92;;;;;;;12.69;100.00;99246.67;1660883;86;21098;-76
2021/05/21 04:27:35;;;;;;;1.87;1.77;;;;;;;12.72;100.00;99244.09;1660962;86;21054;-75
2021/05/21 04:30:04;;;;;;;3.02;1.62;;;;;;;12.72;100.00;99248.99;1660714;86;21070;-73
2021/05/21 04:32:31;;;;;;;5.45;2.02;;;;;;;12.73;100.00;99247.14;1660894;85;21078;-75
2021/05/21 04:34:58;;;;;;;5.87;2.42;;;;;;;12.74;100.00;99247.44;1660794;85;21069;-72
2021/05/21 04:37:25;;;;;;;3.87;1.77;;;;;;;12.77;100.00;99243.49;1661004;86;21045;-72
2021/05/21 04:39:53;;;;;;;4.72;1.95;;;;;;;12.79;100.00;99245.48;1661012;86;21106;-71
2021/05/21 04:42:20;;;;;;;1.67;1.57;;;;;;;12.80;100.00;99248.48;1660751;86;21105;-71
2021/05/21 04:44:47;;;;;;;2.80;1.87;;;;;;;12.85;100.00;99244.11;1660987;86;21070;-74
2021/05/21 04:47:14;;;;;;;5.72;1.92;;;;;;;12.93;100.00;99250.42;1660783;86;21058;-74
2021/05/21 04:49:41;;;;;;;5.60;2.20;;;;;;;13.00;100.00;99258.05;1681769;85;21058;-73
2021/05/21 04:52:09;;;;;;;3.72;1.72;;;;;;;13.11;100.00;99258.78;1689408;85;21055;-73
2021/05/21 04:54:37;;;;;;;3.47;2.05;;;;;;;13.24;100.00;99260.67;1685281;85;21050;-74
2021/05/21 04:57:05;;;;;;;3.15;2.30;;;;;;;13.34;100.00;99261.13;1661654;85;21074;-73
2021/05/21 04:59:32;;;;;;;6.20;2.10;;;;;;;13.43;100.00;99262.59;1661707;86;21099;-73
2021/05/21 05:01:59;;;;;;;4.70;2.00;;;;;;;13.52;100.00;99263.75;1661489;85;21154;-74
2021/05/21 05:04:25;;;;;;;4.90;2.55;;;;;;;13.57;100.00;99259.36;1661739;85;21046;-73
2021/05/21 05:06:54;;;;;;;6.72;2.10;;;;;;;13.63;100.00;99246.81;1661568;86;21616;-73
2021/05/21 05:09:21;;;;;;;3.15;1.90;;;;;;;13.66;100.00;99256.73;1661741;85;21066;-74
2021/05/21 05:11:48;;;;;;;3.80;1.80;;;;;;;13.69;100.00;99260.93;1661729;86;21191;-74
2021/05/21 05:14:15;;;;;;;7.03;4.33;;;;;;;13.70;100.00;99265.83;1661775;85;21517;-78
2021/05/21 05:16:42;;;;;;;7.17;3.45;;;;;;;13.71;100.00;99264.80;1661713;86;21114;-76
2021/05/21 05:19:09;;;;;;;9.95;5.42;;;;;;;13.74;100.00;99265.71;1661630;86;21011;-79
2021/05/21 05:21:43;;;;;;;7.12;4.15;;;;;;;13.80;100.00;99262.99;1661685;86;21138;-74
2021/05/21 05:24:19;;;;;;;19.55;12.35;;;;;;;13.84;100.00;99268.84;1661455;85;21591;-75
2021/05/21 05:26:47;;;;;;;34.15;27.60;;;;;;;13.87;100.00;99264.35;1661449;86;21026;-76
2021/05/21 05:29:14;;;;;;;47.00;38.28;;;;;;;13.91;100.00;99265.59;1661841;85;21577;-82
2021/05/21 05:31:42;;;;;;;88.65;70.92;;;;;;;13.92;100.00;99269.16;1661800;86;21039;-75
2021/05/21 05:34:09;;;;;;;43.87;32.78;;;;;;;13.94;100.00;99271.97;1661776;86;21074;-77
2021/05/21 05:36:36;;;;;;;21.70;11.50;;;;;;;13.99;100.00;99274.89;1661676;86;21113;-77
2021/05/21 05:39:05;;;;;;;4.28;2.75;;;;;;;14.01;100.00;99275.51;1661971;86;21086;-72
2021/05/21 05:41:33;;;;;;;14.20;8.65;;;;;;;14.01;100.00;99275.51;1661864;85;21619;-75
2021/05/21 05:44:00;;;;;;;10.75;5.55;;;;;;;14.02;100.00;99277.69;1661790;86;21050;-77
2021/05/21 05:46:28;;;;;;;5.90;2.87;;;;;;;14.05;100.00;99279.45;1661318;86;21113;-74
2021/05/21 05:48:56;;;;;;;5.03;2.80;;;;;;;14.10;100.00;99284.27;1658008;86;21659;-77
2021/05/21 05:51:23;;;;;;;6.55;2.85;;;;;;;14.12;100.00;99282.70;1634543;88;21063;-77
2021/05/21 05:53:50;;;;;;;9.95;3.10;;;;;;;14.10;100.00;99276.12;1634704;87;21107;-75
2021/05/21 05:56:17;;;;;;;7.75;5.33;;;;;;;14.08;100.00;99278.72;1639957;86;21591;-74
2021/05/21 05:58:44;;;;;;;8.63;3.02;;;;;;;14.08;100.00;99274.64;1661505;85;21130;-72
2021/05/21 06:01:10;;;;;;;3.90;2.47;;;;;;;14.12;100.00;99274.55;1661511;86;21082;-74
2021/05/21 06:03:37;;;;;;;5.50;2.65;;;;;;;14.19;100.00;99267.21;1661506;86;21075;-73
2021/05/21 06:06:04;;;;;;;4.72;2.40;;;;;;;14.31;100.00;99269.58;1661729;86;21603;-74
2021/05/21 06:08:31;;;;;;;6.75;2.70;;;;;;;14.43;100.00;99274.66;1661530;86;21533;-71
2021/05/21 06:10:58;;;;;;;9.53;3.17;;;;;;;14.56;100.00;99276.48;1661408;86;21075;-72
2021/05/21 06:13:26;;;;;;;9.23;2.60;;;;;;;14.67;100.00;99275.00;1660987;86;21099;-73
2021/05/21 06:15:53;;;;;;;17.27;5.20;;;;;;;14.77;100.00;99273.19;1661275;86;21107;-74
2021/05/21 06:18:19;;;;;;;7.25;5.10;;;;;;;14.86;100.00;99266.97;1661829;86;21031;-74
2021/05/21 06:20:46;;;;;;;4.95;3.83;;;;;;;14.98;100.00;99273.39;1661637;86;21580;-73
2021/05/21 06:23:13;;;;;;;7.58;3.20;;;;;;;15.07;100.00;99278.02;1661353;86;21071;-73
2021/05/21 06:28:18;;;;;;;6.70;3.08;;;;;;;15.24;100.00;99283.25;1661544;86;21082;-75
2021/05/21 06:30:44;;;;;;;8.18;5.83;;;;;;;15.31;100.00;99283.22;1666596;86;21083;-75
2021/05/21 06:33:12;;;;;;;18.42;11.00;;;;;;;15.33;100.00;99289.27;1676289;86;21070;-75
2021/05/21 06:35:39;;;;;;;16.57;7.17;;;;;;;15.31;100.00;99284.58;1666524;86;21033;-74
2021/05/21 06:38:06;;;;;;;12.10;5.65;;;;;;;15.31;100.00;99285.94;1661697;86;21556;-75
2021/05/21 06:40:33;;;;;;;14.20;7.85;;;;;;;15.29;100.00;99305.22;1661581;86;21078;-77
2021/05/21 06:43:09;;;;;;;12.58;7.65;;;;;;;15.26;100.00;99298.84;1664370;85;21065;-78
2021/05/21 06:45:37;;;;;;;15.63;9.03;;;;;;;15.20;100.00;99299.73;1662443;85;21051;-75
2021/05/21 06:48:05;;;;;;;15.80;7.35;;;;;;;15.17;100.00;99309.70;1656042;85;21053;-76
2021/05/21 06:50:34;;;;;;;21.82;7.00;;;;;;;15.12;100.00;99306.29;1662067;84;21075;-75
2021/05/21 06:53:01;;;;;;;8.43;5.85;;;;;;;15.06;100.00;99319.94;1660883;86;21684;-77
2021/05/21 06:55:28;;;;;;;14.07;7.67;;;;;;;14.96;100.00;99311.72;1650289;86;21072;-75
2021/05/21 06:57:55;;;;;;;11.65;5.72;;;;;;;14.99;100.00;99322.15;1659914;86;21584;-75
2021/05/21 07:00:21;;;;;;;15.28;7.33;;;;;;;15.01;100.00;99315.13;1661690;85;21619;-73
2021/05/21 07:02:49;;;;;;;16.90;9.88;;;;;;;15.02;100.00;99319.53;1661829;86;21596;-74
2021/05/21 07:05:16;;;;;;;14.90;9.18;;;;;;;15.08;100.00;99315.92;1700436;84;21054;-74
2021/05/21 07:07:45;;;;;;;13.72;6.45;;;;;;;15.16;100.00;99318.94;1684929;84;21078;-75
2021/05/21 07:10:14;;;;;;;13.48;6.92;;;;;;;15.23;100.00;99318.88;1672314;86;21086;-73
2021/05/21 07:12:41;;;;;;;17.95;6.62;;;;;;;15.27;100.00;99320.95;1660959;85;21035;-75
2021/05/21 07:15:08;;;;;;;13.30;6.12;;;;;;;15.29;100.00;99322.92;1662600;85;21094;-75
2021/05/21 07:17:36;;;;;;;13.25;6.33;;;;;;;15.29;100.00;99322.92;1657045;85;21578;-75
2021/05/21 07:20:05;;;;;;;11.53;7.83;;;;;;;15.30;100.00;99323.78;1655846;86;21572;-74
2021/05/21 07:22:31;;;;;;;13.85;8.35;;;;;;;15.33;100.00;99328.77;1660662;86;21021;-76
2021/05/21 07:24:58;;;;;;;13.25;7.45;;;;;;;15.37;100.00;99334.94;1615789;86;21065;-74
2021/05/21 07:27:25;;;;;;;22.20;16.07;;;;;;;15.40;100.00;99343.17;1661394;86;21043;-74
2021/05/21 07:29:52;;;;;;;12.80;6.60;;;;;;;15.43;100.00;99342.75;1662191;85;21062;-74
2021/05/21 07:32:19;;;;;;;17.23;9.08;;;;;;;15.44;100.00;99349.02;1661181;86;21469;-76
2021/05/21 07:34:46;;;;;;;11.48;6.00;;;;;;;15.44;100.00;99343.57;1661016;86;21053;-74
2021/05/21 07:37:13;;;;;;;17.23;10.23;;;;;;;15.45;100.00;99346.62;1660905;86;21099;-74
2021/05/21 07:39:40;;;;;;;20.10;8.20;;;;;;;15.50;100.00;99351.70;1661106;86;21049;-77
2021/05/21 07:42:07;;;;;;;26.33;17.45;;;;;;;15.52;100.00;99346.05;1661841;85;21572;-77
2021/05/21 07:44:33;;;;;;;77.15;64.37;;;;;;;15.54;100.00;99351.56;1656125;86;21072;-78
2021/05/21 07:47:01;;;;;;;31.65;21.48;;;;;;;15.61;100.00;99350.70;1662314;86;21574;-75
2021/05/21 07:49:27;;;;;;;11.48;6.33;;;;;;;15.70;100.00;99355.64;1660775;86;21030;-78
2021/05/21 07:51:54;;;;;;;15.13;7.60;;;;;;;15.79;100.00;99354.05;1660635;86;21098;-80
2021/05/21 07:54:21;;;;;;;14.13;6.70;;;;;;;15.88;100.00;99348.12;1661321;86;21041;-78
2021/05/21 07:56:49;;;;;;;10.20;6.12;;;;;;;15.97;100.00;99349.17;1661064;86;21093;-77
2021/05/21 07:59:17;;;;;;;13.60;5.78;;;;;;;16.06;100.00;99360.95;1661581;85;21137;-80
2021/05/21 08:01:43;;;;;;;9.33;4.83;;;;;;;16.03;100.00;99353.75;1660535;84;21051;-80
2021/05/21 08:04:11;;;;;;;9.88;5.78;;;;;;;16.03;100.00;99353.75;1649300;86;21053;-79
2021/05/21 08:06:41;;;;;;;12.93;6.92;;;;;;;16.05;100.00;99359.81;1662388;86;21100;-78
2021/05/21 08:09:08;;;;;;;14.20;7.72;;;;;;;16.05;100.00;99359.81;1622065;86;21058;-79
2021/05/21 08:11:37;;;;;;;7.67;4.17;;;;;;;16.13;100.00;99360.91;1662450;85;21097;-78
2021/05/21 08:14:04;;;;;;;13.95;4.50;;;;;;;16.24;100.00;99359.33;1676727;85;21068;-78
2021/05/21 08:16:31;;;;;;;9.95;5.20;;;;;;;16.34;100.00;99370.54;1683131;85;21104;-79
2021/05/21 08:18:59;;;;;;;20.90;15.40;;;;;;;16.48;100.00;99367.15;1671609;85;21710;-80
2021/05/21 08:21:27;;;;;;;16.20;6.65;;;;;;;16.57;100.00;99370.42;1677632;85;21046;-75
2021/05/21 08:23:55;;;;;;;19.32;8.20;;;;;;;16.60;100.00;99357.69;1634011;88;21116;-78
2021/05/21 08:26:25;;;;;;;12.90;6.03;;;;;;;16.56;100.00;99360.04;1672779;85;21070;-79
2021/05/21 08:28:54;;;;;;;14.28;5.53;;;;;;;16.50;100.00;99363.66;1668157;85;21086;-78
2021/05/21 08:31:22;;;;;;;13.98;8.65;;;;;;;16.48;100.00;99362.55;1671421;85;21085;-79
2021/05/21 08:33:49;;;;;;;7.30;4.40;;;;;;;16.49;100.00;99372.92;1670731;85;21551;-77
2021/05/21 08:36:17;;;;;;;5.80;3.77;;;;;;;16.56;100.00;99366.86;1625088;86;21566;-78
2021/05/21 08:41:27;;;;;;;45.85;29.48;;;;;;;16.80;100.00;99373.83;1671400;85;22062;-80
2021/05/21 08:43:55;;;;;;;11.85;6.50;;;;;;;16.77;100.00;99379.73;1662870;85;21082;-86
2021/05/21 08:46:28;;;;;;;9.78;5.75;;;;;;;16.65;100.00;99383.23;1667529;85;21079;-77
2021/05/21 08:48:58;;;;;;;16.27;10.05;;;;;;;16.58;100.00;99388.47;1689669;84;21019;-78
2021/05/21 08:51:24;;;;;;;18.50;10.58;;;;;;;16.45;100.00;99393.01;1626733;88;21078;-78
2021/05/21 08:53:51;;;;;;;13.93;7.55;;;;;;;16.38;100.00;99394.11;1626054;88;21722;-79
2021/05/21 08:56:18;;;;;;;16.73;10.15;;;;;;;16.27;100.00;99399.27;1570688;90;21144;-77
2021/05/21 08:58:45;;;;;;;16.32;6.90;;;;;;;16.21;100.00;99400.15;1590644;89;21645;-78
2021/05/21 09:01:11;;;;;;;9.30;4.70;;;;;;;16.20;100.00;99403.95;1576706;91;21088;-76
2021/05/21 09:03:39;;;;;;;11.70;6.85;;;;;;;16.19;100.00;99403.63;1581297;90;21199;-77
2021/05/21 09:06:21;;;;;;;19.62;7.62;;;;;;;16.20;100.00;99410.77;1581538;90;21056;-78
2021/05/21 09:08:56;;;;;;;16.50;10.63;;;;;;;16.25;100.00;99408.72;1602593;89;21116;-78
2021/05/21 09:11:43;;;;;;;16.97;10.43;;;;;;;16.25;100.00;99419.63;1548262;93;21679;-78
2021/05/21 09:14:18;;;;;;;14.58;8.58;;;;;;;16.25;100.00;99421.81;1547650;91;21118;-78
2021/05/21 09:16:47;;;;;;;9.10;4.40;;;;;;;16.29;100.00;99413.52;1525847;92;21047;-79
2021/05/21 09:19:23;;;;;;;13.00;6.50;;;;;;;16.29;100.00;99413.52;1527024;92;21834;-78
2021/05/21 09:22:07;;;;;;;9.05;5.33;;;;;;;16.29;100.00;99413.52;1559143;91;21201;-78
2021/05/21 09:24:45;;;;;;;16.15;8.05;;;;;;;16.36;100.00;99410.73;1552881;87;21484;-76
2021/05/21 09:27:13;;;;;;;9.70;6.85;;;;;;;16.48;100.00;99409.45;1647646;87;21596;-74
2021/05/21 09:29:51;;;;;;;6.47;4.72;;;;;;;16.61;100.00;99411.20;1646176;87;21039;-78
2021/05/21 09:32:31;;;;;;;20.52;14.10;;;;;;;16.89;100.00;99408.84;1653466;86;21107;-75
2021/05/21 09:35:11;;;;;;;13.75;9.80;;;;;;;16.89;100.00;99408.84;1655254;86;21069;-77
2021/05/21 09:37:47;;;;;;;12.85;6.50;;;;;;;17.07;100.00;99402.53;1650987;86;21151;-80
2021/05/21 09:40:18;;;;;;;16.85;10.30;;;;;;;17.19;100.00;99409.94;1606818;88;21071;-80
2021/05/21 09:42:55;;;;;;;9.60;5.85;;;;;;;17.26;100.00;99407.95;1597049;89;21135;-77
2021/05/21 09:45:36;;;;;;;8.45;5.00;;;;;;;17.37;100.00;99403.60;1599856;90;21115;-78
2021/05/21 09:48:08;;;;;;;13.20;5.58;;;;;;;17.58;100.00;99399.53;1522255;93;21147;-77
2021/05/21 09:50:47;;;;;;;10.32;5.70;;;;;;;17.80;100.00;99399.30;1507561;94;21260;-78
2021/05/21 09:53:17;;;;;;;11.95;7.83;;;;;;;18.15;100.00;99392.24;1504986;95;21102;-78
2021/05/21 10:00:29;;;;;;;12.60;6.70;;;;;;;18.59;100.00;99387.25;1479928;97;21196;-78
2021/05/21 10:03:00;;;;;;;16.10;7.72;;;;;;;18.85;100.00;99387.85;1508417;94;21306;-78
2021/05/21 10:05:26;;;;;;;12.35;6.42;;;;;;;19.06;100.00;99389.11;1489765;95;21678;-79
2021/05/21 10:07:54;;;;;;;21.73;8.38;;;;;;;19.15;100.00;99390.39;1497104;94;21621;-78
2021/05/21 10:10:25;;;;;;;21.17;12.60;;;;;;;19.11;100.00;99396.07;1525679;94;21544;-75
2021/05/21 10:12:52;;;;;;;12.85;7.60;;;;;;;19.13;100.00;99400.22;1555089;92;21577;-78
2021/05/21 10:15:19;;;;;;;17.12;9.03;;;;;;;19.27;100.00;99400.77;1540169;93;21095;-79
2021/05/21 10:17:47;;;;;;;11.38;6.58;;;;;;;19.79;100.00;99404.50;1538625;93;21071;-77
2021/05/21 10:20:17;;;;;;;18.55;7.50;;;;;;;20.41;100.00;99383.83;1543245;92;21635;-77
2021/05/21 10:25:24;;;;;;;11.25;5.97;;;;;;;21.59;100.00;99384.55;1491760;95;21202;-78
2021/05/21 10:27:53;;;;;;;12.50;5.80;;;;;;;22.07;100.00;99370.94;1471609;96;21650;-80
2021/05/21 10:30:25;;;;;;;27.77;9.65;;;;;;;22.42;100.00;99384.17;1489148;96;21210;-78
2021/05/21 10:33:45;;;;;;;;;;;;;;;;;;;;;
2021/05/21 10:36:27;;;;;;;10.80;6.40;;;;;;;23.13;100.00;99374.09;1487984;96;21122;-78
2021/05/21 10:39:20;;;;;;;20.77;7.87;;;;;;;23.58;100.00;99370.34;1489020;96;21616;-78
2021/05/21 10:42:20;;;;;;;10.23;4.80;;;;;;;23.93;100.00;99381.73;1489932;96;21122;-79
2021/05/21 10:44:50;;;;;;;11.50;7.40;;;;;;;24.07;100.00;99376.76;1525723;92;21118;-77
2021/05/21 10:47:22;;;;;;;13.83;10.13;;;;;;;24.03;100.00;99374.28;1579715;91;21206;-79
2021/05/21 10:49:54;;;;;;;11.18;6.35;;;;;;;24.07;100.00;99370.41;1579886;91;21094;-82
2021/05/21 10:52:46;;;;;;;9.35;6.05;;;;;;;24.16;100.00;99364.61;1580023;91;21638;-81
2021/05/21 10:55:13;;;;;;;63.13;47.33;;;;;;;24.32;100.00;99361.84;1579216;91;21133;-80
2021/05/21 10:57:42;;;;;;;12.10;7.75;;;;;;;24.29;100.00;99370.11;1579459;91;21058;-81
2021/05/21 11:00:09;;;;;;;8.88;6.20;;;;;;;24.29;100.00;99379.78;1577965;91;21632;-81
2021/05/21 11:02:49;;;;;;;12.25;6.65;;;;;;;24.14;100.00;99379.25;1579070;91;21123;-78
2021/05/21 11:08:10;;;;;;;16.60;7.45;;;;;;;24.29;100.00;99376.20;1505647;94;21603;-76
2021/05/21 11:10:42;;;;;;;21.07;8.88;;;;;;;24.49;100.00;99373.41;1460869;98;21069;-78
2021/05/21 11:13:15;;;;;;;12.10;7.70;;;;;;;24.57;100.00;99371.47;1479412;97;21617;-77
2021/05/21 11:15:48;;;;;;;;;;;;;;;24.63;100.00;99373.13;1486717;95;21635;-77
2021/05/21 11:18:23;;;;;;;8.98;4.58;;;;;;;24.62;100.00;99378.38;1499670;95;20240;-77
2021/05/21 11:21:12;;;;;;;12.00;5.40;;;;;;;24.58;100.00;99372.32;1499841;95;21130;-75
2021/05/21 11:23:50;;;;;;;11.12;7.53;;;;;;;24.50;100.00;99375.05;1505438;95;21110;-80
2021/05/21 11:26:21;;;;;;;14.70;7.85;;;;;;;24.44;100.00;99377.00;1521476;94;21161;-78
2021/05/21 11:29:00;;;;;;;15.30;10.03;;;;;;;24.61;100.00;99394.70;1538856;92;21083;-77
2021/05/21 11:31:31;;;;;;;45.45;11.80;;;;;;;24.83;100.00;99390.20;1511521;95;21078;-76
2021/05/21 11:34:01;;;;;;;12.40;5.70;;;;;;;25.00;100.00;99377.97;1393576;103;21710;-78
2021/05/21 11:36:34;;;;;;;11.12;4.60;;;;;;;24.88;100.00;99375.55;1411044;101;21676;-76
2021/05/21 11:39:02;;;;;;;12.15;4.95;;;;;;;24.69;100.00;99383.61;1401498;101;21674;-78
2021/05/21 11:41:36;;;;;;;8.90;4.80;;;;;;;24.64;100.00;99385.83;1403618;101;21209;-78
2021/05/21 11:44:09;;;;;;;9.38;4.72;;;;;;;24.55;100.00;99383.36;1408842;101;21634;-77
2021/05/21 11:46:41;;;;;;;6.78;4.33;;;;;;;24.40;100.00;99386.11;1369802;105;21192;-77